Oppenheim, New York
Current Conditions -  °F | °C
As of 5:35 PM on Wednesday 22 Oct 2014 (Local Time) from KNY0 Reporting Station
Overcast Overcast  
Wind Chill: 44°   Ceiling: 1900
Heat Index: 48°   Visibility: 10mi
Dew Point: 45°   Wind: 8mph
Humidity: 91%   Direction: 10°N
Pressure: 30.02"   Gusts: NA
Location:  43.1048°N, 74.7138°W
Report Text: KNY0 222135Z AUTO 01007KT 10SM BKN019 BKN036 OVC044 09/07 A3002 RMK AO2 P0002 T00880074
Loading
Personal Weather Stations






























Interactive Weather Map New forecast layout! Learn more

10-Day Weather Forecast

Advertisements
Track Severe Weather on mobile